Time;durP1;ratioP1;P1;durP2;ratioP2;P2;SDS_P1;SDS_P2;PMS_P1;PMS_P2;Temp;Humidity;BMP_temperature;BMP_pressure;BME280_temperature;BME280_humidity;BME280_pressure;Samples;Min_cycle;Max_cycle;Signal;HPM_P1;HPM_P2
2023/01/22 00:01:55;;;;;;;20.10;12.02;;;1.50;99.90;;;;;;5053033;28;20453;-67
2023/01/22 00:04:20;;;;;;;20.88;11.38;;;1.60;99.90;;;;;;5052133;28;20147;-67
2023/01/22 00:06:46;;;;;;;17.13;10.15;;;1.50;99.90;;;;;;5052830;28;20040;-67
2023/01/22 00:09:11;;;;;;;21.83;10.57;;;1.50;99.90;;;;;;5052836;28;20041;-67
2023/01/22 00:11:37;;;;;;;20.20;10.80;;;1.50;99.90;;;;;;5052959;28;20040;-68
2023/01/22 00:14:02;;;;;;;21.60;10.82;;;1.40;99.90;;;;;;5050555;28;20462;-68
2023/01/22 00:16:28;;;;;;;19.90;11.57;;;1.40;99.90;;;;;;5052739;28;20524;-68
2023/01/22 00:18:53;;;;;;;23.30;11.95;;;1.30;99.90;;;;;;5052720;28;20043;-68
2023/01/22 00:21:19;;;;;;;24.15;13.65;;;1.20;99.90;;;;;;5052749;28;20047;-67
2023/01/22 00:23:44;;;;;;;24.42;12.88;;;1.30;99.90;;;;;;5050683;28;20055;-68
2023/01/22 00:26:15;;;;;;;22.88;13.25;;;1.30;99.90;;;;;;5051673;28;20036;-67
2023/01/22 00:28:44;;;;;;;22.52;13.30;;;1.20;99.90;;;;;;5052577;28;20040;-68
2023/01/22 00:31:10;;;;;;;20.27;13.35;;;1.10;99.90;;;;;;5052013;28;20102;-68
2023/01/22 00:33:38;;;;;;;20.58;13.55;;;1.20;99.90;;;;;;5051598;28;20083;-68
2023/01/22 00:36:05;;;;;;;20.33;12.25;;;1.20;99.90;;;;;;5052296;28;20037;-67
2023/01/22 00:38:30;;;;;;;22.52;12.57;;;1.00;99.90;;;;;;5052387;28;20479;-68
2023/01/22 00:41:00;;;;;;;20.30;12.27;;;1.00;99.90;;;;;;5052414;28;20035;-67
2023/01/22 00:43:26;;;;;;;20.45;12.48;;;0.90;99.90;;;;;;5050127;28;20564;-68
2023/01/22 00:45:51;;;;;;;25.45;12.57;;;0.90;99.90;;;;;;5052019;28;20045;-68
2023/01/22 00:48:17;;;;;;;23.83;13.00;;;0.90;99.90;;;;;;5051119;28;20052;-67
2023/01/22 00:50:42;;;;;;;20.08;12.18;;;0.70;99.90;;;;;;5051954;28;20044;-67
2023/01/22 00:53:08;;;;;;;20.42;12.07;;;0.70;99.90;;;;;;5051329;28;20357;-68
2023/01/22 00:55:33;;;;;;;22.73;12.73;;;0.90;99.90;;;;;;5052053;28;20142;-68
2023/01/22 00:57:59;;;;;;;20.00;12.63;;;0.70;99.90;;;;;;5050741;28;20041;-68
2023/01/22 01:00:24;;;;;;;20.33;13.05;;;0.80;99.90;;;;;;5050679;28;20437;-68
2023/01/22 01:05:34;;;;;;;22.38;12.57;;;0.80;99.90;;;;;;5051799;28;20095;-68
2023/01/22 01:07:59;;;;;;;24.08;14.00;;;0.90;99.90;;;;;;5052045;28;20036;-68
2023/01/22 01:10:25;;;;;;;22.70;14.18;;;0.60;99.90;;;;;;5051799;28;20094;-68
2023/01/22 01:12:50;;;;;;;33.13;18.70;;;0.80;99.90;;;;;;5050976;28;20037;-68
2023/01/22 01:15:16;;;;;;;36.88;20.42;;;0.60;99.90;;;;;;5050282;28;20044;-68
2023/01/22 01:17:41;;;;;;;32.78;19.85;;;0.50;99.90;;;;;;5051444;28;20056;-68
2023/01/22 01:20:07;;;;;;;37.05;19.80;;;0.70;99.90;;;;;;5050310;28;20144;-68
2023/01/22 01:22:33;;;;;;;35.58;18.00;;;0.80;99.90;;;;;;5050989;28;20045;-67
2023/01/22 01:24:59;;;;;;;31.83;17.10;;;0.60;99.90;;;;;;5051284;28;20124;-68
2023/01/22 01:27:24;;;;;;;38.90;17.58;;;0.60;99.90;;;;;;5051505;28;20045;-68
2023/01/22 01:29:50;;;;;;;27.05;13.32;;;0.60;99.90;;;;;;5051446;28;20033;-68
2023/01/22 01:32:15;;;;;;;27.58;14.27;;;0.70;99.90;;;;;;5050872;28;20041;-67
2023/01/22 01:34:41;;;;;;;24.00;13.30;;;0.50;99.90;;;;;;5049421;28;20045;-67
2023/01/22 01:37:06;;;;;;;21.02;12.80;;;0.70;99.90;;;;;;5051450;28;20037;-68
2023/01/22 01:39:32;;;;;;;19.05;11.10;;;0.70;99.90;;;;;;5049852;28;20037;-68
2023/01/22 01:41:57;;;;;;;21.65;12.95;;;0.50;99.90;;;;;;5049962;28;20041;-67
2023/01/22 01:44:23;;;;;;;28.80;13.90;;;0.50;99.90;;;;;;5031566;28;20045;-68
2023/01/22 01:46:59;;;;;;;25.17;12.40;;;0.50;99.90;;;;;;5051100;28;20167;-67
2023/01/22 01:49:29;;;;;;;24.58;13.00;;;0.60;99.90;;;;;;5051290;28;20047;-68
2023/01/22 01:51:59;;;;;;;22.52;13.07;;;0.70;99.90;;;;;;5051104;28;20095;-68
2023/01/22 01:54:26;;;;;;;23.33;13.27;;;0.50;99.90;;;;;;5050922;28;20057;-68
2023/01/22 01:56:59;;;;;;;21.10;12.60;;;0.60;99.90;;;;;;5051490;28;20072;-68
2023/01/22 01:59:25;;;;;;;18.98;12.60;;;0.70;99.90;;;;;;5051192;28;20043;-68
2023/01/22 02:01:55;;;;;;;20.35;12.07;;;0.70;99.90;;;;;;5051674;28;20040;-68
2023/01/22 02:04:21;;;;;;;22.83;12.45;;;0.60;99.90;;;;;;5050509;28;20131;-68
2023/01/22 02:06:47;;;;;;;22.52;13.05;;;0.50;99.90;;;;;;5051560;28;20115;-68
2023/01/22 02:09:13;;;;;;;22.60;12.57;;;0.60;99.90;;;;;;5051061;28;20502;-68
2023/01/22 02:11:39;;;;;;;22.42;12.70;;;0.70;99.90;;;;;;5051093;28;20041;-68
2023/01/22 02:14:12;;;;;;;25.08;12.02;;;0.70;99.90;;;;;;5049773;28;20509;-68
2023/01/22 02:16:38;;;;;;;21.98;13.10;;;0.70;99.90;;;;;;5051193;28;20048;-68
2023/01/22 02:19:03;;;;;;;25.67;12.13;;;0.70;99.90;;;;;;5051246;28;20107;-68
2023/01/22 02:21:43;;;;;;;24.92;13.05;;;0.80;99.90;;;;;;5050896;28;20041;-68
2023/01/22 02:24:10;;;;;;;21.27;11.48;;;0.80;99.90;;;;;;5050115;28;20048;-67
2023/01/22 02:26:36;;;;;;;22.00;12.35;;;0.70;99.90;;;;;;5050822;28;20040;-68
2023/01/22 02:29:04;;;;;;;19.67;11.23;;;0.70;99.90;;;;;;5050953;28;20099;-68
2023/01/22 02:31:30;;;;;;;20.17;10.85;;;0.70;99.90;;;;;;5050751;28;20521;-68
2023/01/22 02:33:56;;;;;;;20.98;11.75;;;0.90;99.90;;;;;;5050069;28;20111;-67
2023/01/22 02:36:21;;;;;;;18.98;10.65;;;0.80;99.90;;;;;;5050824;28;20048;-67
2023/01/22 02:38:47;;;;;;;23.30;11.88;;;1.00;99.90;;;;;;5049549;28;20041;-67
2023/01/22 02:41:13;;;;;;;33.72;15.20;;;1.10;99.90;;;;;;5050593;28;20063;-67
2023/01/22 02:43:39;;;;;;;25.58;13.35;;;1.10;99.90;;;;;;5049831;28;20080;-67
2023/01/22 02:46:05;;;;;;;24.42;13.23;;;1.00;99.90;;;;;;5049657;28;20467;-67
2023/01/22 02:48:30;;;;;;;29.20;13.27;;;1.20;99.90;;;;;;5051047;28;20132;-67
2023/01/22 02:50:56;;;;;;;26.77;12.85;;;1.30;99.90;;;;;;5050854;28;20155;-67
2023/01/22 02:53:21;;;;;;;27.13;12.75;;;1.30;99.90;;;;;;5048785;28;20388;-67
2023/01/22 02:55:47;;;;;;;25.92;11.15;;;1.30;99.90;;;;;;5053215;28;20033;-67
2023/01/22 02:58:16;;;;;;;25.38;11.55;;;1.20;99.90;;;;;;5054316;28;20044;-68
2023/01/22 03:00:41;;;;;;;29.08;13.02;;;1.20;99.90;;;;;;5053403;28;20041;-68
2023/01/22 03:03:14;;;;;;;18.20;9.10;;;1.40;99.90;;;;;;5052540;28;20047;-68
2023/01/22 03:05:49;;;;;;;13.52;7.57;;;1.30;99.90;;;;;;5061322;22;20052;-69
2023/01/22 03:08:15;;;;;;;12.10;7.05;;;1.40;99.90;;;;;;5034723;28;20116;-69
2023/01/22 03:10:40;;;;;;;12.00;7.55;;;1.60;99.90;;;;;;5017148;28;20038;-69
2023/01/22 03:21:19;;;;;;;11.45;6.32;;;1.60;99.90;;;;;;5033335;28;20057;-70
2023/01/22 03:23:47;;;;;;;11.55;6.43;;;1.60;99.90;;;;;;5032742;28;20037;-70
2023/01/22 03:26:13;;;;;;;10.65;6.45;;;1.60;99.90;;;;;;5016735;28;20041;-70
2023/01/22 03:28:39;;;;;;;9.18;6.20;;;1.70;99.90;;;;;;5016920;28;20064;-69
2023/01/22 03:31:05;;;;;;;15.18;7.70;;;1.60;99.90;;;;;;5034220;28;20491;-69
2023/01/22 03:33:31;;;;;;;14.23;7.22;;;1.60;99.90;;;;;;5032270;28;20037;-70
2023/01/22 03:36:07;;;;;;;14.10;8.70;;;1.50;99.90;;;;;;5034182;28;20385;-70
2023/01/22 03:38:33;;;;;;;13.73;8.15;;;1.60;99.90;;;;;;5033223;28;20049;-69
2023/01/22 03:41:07;;;;;;;17.45;8.13;;;1.60;99.90;;;;;;5032977;28;20037;-69
2023/01/22 03:43:33;;;;;;;12.63;8.40;;;1.60;99.90;;;;;;5032182;28;20103;-69
2023/01/22 03:46:09;;;;;;;17.90;8.48;;;1.70;99.90;;;;;;5033941;28;20403;-69
2023/01/22 03:48:35;;;;;;;15.18;8.95;;;1.80;99.90;;;;;;5034090;28;20046;-69
2023/01/22 03:51:10;;;;;;;13.48;6.70;;;1.70;99.90;;;;;;5032705;28;20048;-69
2023/01/22 03:53:36;;;;;;;20.35;8.30;;;1.70;99.90;;;;;;5031838;28;20083;-69
2023/01/22 03:56:04;;;;;;;10.32;6.32;;;1.80;99.90;;;;;;5033316;28;20134;-70
2023/01/22 03:58:31;;;;;;;17.13;7.10;;;1.70;99.90;;;;;;5032649;28;20041;-70
2023/01/22 04:01:00;;;;;;;10.55;6.03;;;1.70;99.90;;;;;;5034020;28;20087;-70
2023/01/22 04:03:27;;;;;;;9.25;5.72;;;1.60;99.90;;;;;;5033052;28;20041;-69
2023/01/22 04:05:53;;;;;;;11.20;6.00;;;1.70;99.90;;;;;;5032022;28;20503;-69
2023/01/22 04:08:20;;;;;;;9.35;6.22;;;1.70;99.90;;;;;;5033886;28;20052;-69
2023/01/22 04:10:46;;;;;;;8.73;5.45;;;1.70;99.90;;;;;;5033534;28;20034;-69
2023/01/22 04:13:11;;;;;;;10.27;5.90;;;1.80;99.90;;;;;;5032842;28;20093;-69
2023/01/22 04:15:37;;;;;;;9.48;6.35;;;1.80;99.90;;;;;;5033606;28;20443;-69
2023/01/22 04:18:03;;;;;;;9.02;5.80;;;1.80;99.90;;;;;;5032343;28;20136;-69
2023/01/22 04:20:28;;;;;;;10.75;7.00;;;1.70;99.90;;;;;;5032313;28;20128;-69
2023/01/22 04:22:54;;;;;;;13.07;7.22;;;1.70;99.90;;;;;;5014967;28;20071;-69
2023/01/22 04:25:19;;;;;;;13.40;7.18;;;1.80;99.90;;;;;;5033049;28;20095;-69
2023/01/22 04:27:45;;;;;;;11.68;7.30;;;1.70;99.90;;;;;;5033513;28;20125;-69
2023/01/22 04:30:11;;;;;;;15.07;8.13;;;1.70;99.90;;;;;;5033557;28;20124;-69
2023/01/22 04:32:36;;;;;;;11.07;6.40;;;1.70;99.90;;;;;;5032727;28;20045;-69
2023/01/22 04:35:03;;;;;;;13.50;6.15;;;1.80;99.90;;;;;;5033300;28;20082;-69
2023/01/22 04:37:30;;;;;;;11.32;6.15;;;1.70;99.90;;;;;;5033177;28;20065;-69
2023/01/22 04:39:55;;;;;;;10.68;5.53;;;1.80;99.90;;;;;;5031776;28;20042;-69
2023/01/22 04:42:21;;;;;;;8.73;5.75;;;1.90;99.90;;;;;;5032580;28;20167;-69
2023/01/22 04:44:47;;;;;;;8.48;5.20;;;1.80;99.90;;;;;;5033139;28;20037;-69
2023/01/22 04:47:12;;;;;;;7.72;5.53;;;1.80;99.90;;;;;;5033125;28;20410;-69
2023/01/22 04:49:38;;;;;;;7.38;4.78;;;1.90;99.90;;;;;;5033222;28;20048;-69
2023/01/22 04:52:03;;;;;;;8.02;4.80;;;1.80;99.90;;;;;;5033004;28;20041;-69
2023/01/22 04:54:29;;;;;;;11.55;4.63;;;1.90;99.90;;;;;;5032035;28;20053;-69
2023/01/22 04:56:54;;;;;;;7.60;4.22;;;1.90;99.90;;;;;;5033012;28;20087;-68
2023/01/22 04:59:20;;;;;;;7.93;4.68;;;1.90;99.90;;;;;;5032941;28;20083;-68
2023/01/22 05:01:46;;;;;;;8.15;5.20;;;1.90;99.90;;;;;;5032784;28;20034;-69
2023/01/22 05:04:11;;;;;;;8.00;5.18;;;1.90;99.90;;;;;;5031779;28;20087;-69
2023/01/22 05:06:37;;;;;;;8.05;4.55;;;1.80;99.90;;;;;;5032683;28;20407;-69
2023/01/22 05:09:02;;;;;;;8.25;5.15;;;1.80;99.90;;;;;;5032366;28;20037;-69
2023/01/22 05:11:28;;;;;;;8.82;5.55;;;1.80;99.90;;;;;;5032643;28;20503;-69
2023/01/22 05:13:53;;;;;;;7.30;5.18;;;1.90;99.90;;;;;;5030337;28;20041;-69
2023/01/22 05:16:19;;;;;;;10.95;5.57;;;1.90;99.90;;;;;;5032749;28;20041;-69
2023/01/22 05:18:45;;;;;;;10.68;6.72;;;1.80;99.90;;;;;;5032407;28;20123;-69
2023/01/22 05:21:10;;;;;;;7.85;5.45;;;1.70;99.90;;;;;;5032325;28;20086;-69
2023/01/22 05:23:36;;;;;;;9.93;5.97;;;1.70;99.90;;;;;;5031380;28;20453;-69
2023/01/22 05:26:02;;;;;;;9.55;6.50;;;1.80;99.90;;;;;;5032276;28;20037;-70
2023/01/22 05:28:27;;;;;;;13.25;7.00;;;1.60;99.90;;;;;;5032288;28;20156;-69
2023/01/22 05:30:53;;;;;;;8.90;6.30;;;1.60;99.90;;;;;;5032130;28;20503;-69
2023/01/22 05:33:18;;;;;;;10.77;6.00;;;1.70;99.90;;;;;;5031321;28;20045;-69
2023/01/22 05:35:44;;;;;;;8.88;6.60;;;1.60;99.90;;;;;;5032082;28;20082;-69
2023/01/22 05:38:09;;;;;;;8.35;5.90;;;1.80;99.90;;;;;;5031885;28;20042;-69
2023/01/22 05:40:35;;;;;;;11.98;6.93;;;1.80;99.90;;;;;;5031929;28;20037;-69
2023/01/22 05:43:03;;;;;;;17.98;9.25;;;1.70;99.90;;;;;;5031383;28;20049;-69
2023/01/22 05:45:28;;;;;;;21.17;8.50;;;1.60;99.90;;;;;;5032133;28;20037;-68
2023/01/22 05:47:54;;;;;;;19.35;9.23;;;1.50;99.90;;;;;;5031185;28;20120;-69
2023/01/22 05:50:20;;;;;;;14.23;8.65;;;1.60;99.90;;;;;;5032094;28;20045;-68
2023/01/22 05:52:46;;;;;;;13.23;7.70;;;1.60;99.90;;;;;;5031153;28;20069;-68
2023/01/22 05:55:12;;;;;;;18.83;9.20;;;1.60;99.90;;;;;;5031749;28;20088;-69
2023/01/22 05:57:37;;;;;;;15.35;9.15;;;1.60;99.90;;;;;;5031863;28;20044;-69
2023/01/22 06:00:04;;;;;;;16.05;8.85;;;1.60;99.90;;;;;;5031783;28;20124;-69
2023/01/22 06:02:30;;;;;;;16.85;9.68;;;1.50;99.90;;;;;;5030926;28;20561;-68
2023/01/22 06:04:55;;;;;;;15.65;9.48;;;1.50;99.90;;;;;;5031412;28;20045;-69
2023/01/22 06:07:21;;;;;;;21.02;9.88;;;1.50;99.90;;;;;;5031403;28;20098;-69
2023/01/22 06:09:46;;;;;;;15.98;8.48;;;1.60;99.90;;;;;;5031423;28;20041;-69
2023/01/22 06:12:14;;;;;;;14.15;8.90;;;1.50;99.90;;;;;;5031281;28;20056;-69
2023/01/22 06:14:39;;;;;;;10.18;7.10;;;1.70;99.90;;;;;;5030959;28;20049;-68
2023/01/22 06:17:05;;;;;;;9.63;6.38;;;1.60;99.90;;;;;;5031439;28;20475;-68
2023/01/22 06:19:30;;;;;;;9.13;6.18;;;1.60;99.90;;;;;;5031338;28;20503;-68
2023/01/22 06:21:56;;;;;;;11.75;6.45;;;1.70;99.90;;;;;;5031226;28;20046;-68
2023/01/22 06:24:21;;;;;;;10.45;6.43;;;1.60;99.90;;;;;;5030588;28;20041;-68
2023/01/22 06:26:47;;;;;;;11.15;6.32;;;1.60;99.90;;;;;;5031477;28;20061;-69
2023/01/22 06:29:12;;;;;;;9.35;6.63;;;1.60;99.90;;;;;;5031688;28;20037;-68
2023/01/22 06:31:38;;;;;;;9.80;6.47;;;1.70;99.90;;;;;;5035788;28;20479;-69
2023/01/22 06:34:04;;;;;;;10.13;6.50;;;1.60;99.90;;;;;;5034436;28;20045;-68
2023/01/22 06:36:30;;;;;;;10.48;7.47;;;1.50;99.90;;;;;;5035204;28;20627;-68
2023/01/22 06:38:55;;;;;;;8.85;6.10;;;1.40;99.90;;;;;;5035351;28;20037;-68
2023/01/22 06:41:21;;;;;;;10.15;6.97;;;1.40;99.90;;;;;;5033832;28;20034;-68
2023/01/22 06:43:47;;;;;;;10.00;7.18;;;1.50;99.90;;;;;;5034353;28;20095;-68
2023/01/22 06:46:13;;;;;;;12.85;7.82;;;1.40;99.90;;;;;;5035100;28;20442;-69
2023/01/22 06:48:38;;;;;;;12.00;8.25;;;1.20;99.90;;;;;;5033838;28;20037;-68
2023/01/22 06:51:04;;;;;;;15.57;9.02;;;1.30;99.90;;;;;;5034861;28;20038;-68
2023/01/22 06:53:29;;;;;;;14.80;8.82;;;1.30;99.90;;;;;;5032787;28;20149;-68
2023/01/22 06:55:58;;;;;;;18.77;9.38;;;1.30;99.90;;;;;;5034777;28;20053;-68
2023/01/22 06:58:24;;;;;;;17.15;8.80;;;1.30;99.90;;;;;;5033944;28;20444;-68
2023/01/22 07:00:49;;;;;;;14.23;9.00;;;1.30;99.90;;;;;;5017283;28;20163;-68
2023/01/22 07:03:15;;;;;;;15.80;10.52;;;1.30;99.90;;;;;;5034099;28;20385;-68
2023/01/22 07:05:40;;;;;;;16.45;10.82;;;1.40;99.90;;;;;;5033221;28;20494;-68
2023/01/22 07:08:06;;;;;;;13.98;8.95;;;1.30;99.90;;;;;;5034837;28;20088;-68
2023/01/22 07:10:31;;;;;;;19.85;10.80;;;1.40;99.90;;;;;;5034749;28;20120;-68
2023/01/22 07:12:57;;;;;;;22.70;10.18;;;1.30;99.90;;;;;;5033782;28;20120;-68
2023/01/22 07:15:24;;;;;;;16.48;8.85;;;1.20;99.90;;;;;;5034271;28;20530;-68
2023/01/22 07:17:51;;;;;;;15.85;10.80;;;1.20;99.90;;;;;;5034570;28;20063;-68
2023/01/22 07:20:18;;;;;;;21.63;10.88;;;1.20;99.90;;;;;;5034793;28;20376;-68
2023/01/22 07:22:43;;;;;;;20.50;10.77;;;1.20;99.90;;;;;;5033782;28;20042;-68
2023/01/22 07:25:09;;;;;;;18.20;10.02;;;1.10;99.90;;;;;;5033072;28;20140;-68
2023/01/22 07:27:36;;;;;;;25.52;10.35;;;1.30;99.90;;;;;;5034393;28;20073;-68
2023/01/22 07:30:01;;;;;;;15.27;9.38;;;1.10;99.90;;;;;;5034266;28;20048;-68
2023/01/22 07:32:27;;;;;;;19.50;10.55;;;1.20;99.90;;;;;;5033367;28;20045;-68
2023/01/22 07:34:52;;;;;;;20.98;9.82;;;1.20;99.90;;;;;;5034033;28;20057;-68
2023/01/22 07:37:18;;;;;;;26.42;11.63;;;1.10;99.90;;;;;;5034113;28;20045;-68
2023/01/22 07:39:43;;;;;;;15.10;9.23;;;1.00;99.90;;;;;;5034093;28;20040;-68
2023/01/22 07:42:11;;;;;;;17.25;9.35;;;1.10;99.90;;;;;;5032738;28;20045;-68
2023/01/22 07:44:39;;;;;;;16.27;9.77;;;1.10;99.90;;;;;;5033320;28;20041;-68
2023/01/22 07:47:05;;;;;;;16.73;10.23;;;1.10;99.90;;;;;;5032825;28;20438;-68
2023/01/22 07:49:30;;;;;;;18.05;8.85;;;1.20;99.90;;;;;;5032481;28;20052;-68
2023/01/22 07:51:56;;;;;;;14.00;9.23;;;1.10;99.90;;;;;;5032366;28;20131;-68
2023/01/22 07:54:22;;;;;;;12.70;9.40;;;1.20;99.90;;;;;;5033016;28;20048;-68
2023/01/22 07:56:48;;;;;;;13.27;9.20;;;1.20;99.90;;;;;;5033710;28;20462;-68
2023/01/22 07:59:13;;;;;;;14.25;9.18;;;1.30;99.90;;;;;;5033729;28;20120;-68
2023/01/22 08:01:39;;;;;;;15.60;9.27;;;1.20;99.90;;;;;;5033600;28;20045;-68
2023/01/22 08:04:05;;;;;;;14.63;9.30;;;1.30;99.90;;;;;;5032475;28;20037;-68
2023/01/22 08:06:30;;;;;;;22.88;10.90;;;1.20;99.90;;;;;;5033681;28;20052;-68
2023/01/22 08:08:58;;;;;;;20.77;11.23;;;1.20;99.90;;;;;;5032247;28;20128;-68
2023/01/22 08:11:24;;;;;;;13.75;9.00;;;1.10;99.90;;;;;;5033375;28;20403;-68
2023/01/22 08:13:50;;;;;;;16.45;9.35;;;1.20;99.90;;;;;;5032688;28;20037;-68
2023/01/22 08:16:15;;;;;;;20.92;9.18;;;1.10;99.90;;;;;;5033414;28;20415;-68
2023/01/22 08:18:41;;;;;;;15.05;9.05;;;1.30;99.90;;;;;;5033234;28;20037;-68
2023/01/22 08:21:06;;;;;;;14.55;8.55;;;1.20;99.90;;;;;;5033430;28;20040;-68
2023/01/22 08:23:32;;;;;;;20.83;9.85;;;1.20;99.90;;;;;;5031218;28;20048;-68
2023/01/22 08:26:02;;;;;;;14.80;9.02;;;1.10;99.90;;;;;;5032790;28;20109;-68
2023/01/22 08:28:29;;;;;;;18.10;9.65;;;1.20;99.90;;;;;;5033067;28;20044;-73
2023/01/22 08:30:59;;;;;;;17.35;9.43;;;1.20;99.90;;;;;;5031285;28;20499;-73
2023/01/22 08:33:25;;;;;;;19.83;9.93;;;1.20;99.90;;;;;;5032211;28;20041;-73
2023/01/22 08:35:50;;;;;;;22.90;12.00;;;1.20;99.90;;;;;;5031096;28;20107;-74
2023/01/22 08:38:16;;;;;;;23.85;13.63;;;1.10;99.90;;;;;;5031939;28;20075;-73
2023/01/22 08:40:41;;;;;;;20.92;11.63;;;1.10;99.90;;;;;;5031875;28;20045;-73
2023/01/22 08:43:07;;;;;;;17.73;9.15;;;1.20;99.90;;;;;;5031162;28;20041;-73
2023/01/22 08:45:33;;;;;;;17.45;10.80;;;1.20;99.90;;;;;;5031570;28;20046;-73
2023/01/22 08:47:59;;;;;;;22.48;10.20;;;1.30;99.90;;;;;;5031634;28;20037;-73
2023/01/22 08:50:27;;;;;;;16.38;9.38;;;1.10;99.90;;;;;;5031485;28;20037;-73
2023/01/22 08:52:56;;;;;;;16.63;8.90;;;1.20;99.90;;;;;;5030391;28;20569;-73
2023/01/22 08:55:21;;;;;;;14.50;9.10;;;1.30;99.90;;;;;;5031001;28;20077;-73
2023/01/22 08:57:55;;;;;;;16.92;8.55;;;1.20;99.90;;;;;;5032727;28;20080;-73
2023/01/22 09:00:22;;;;;;;15.60;9.00;;;1.30;99.90;;;;;;5031556;28;20045;-73
2023/01/22 09:02:47;;;;;;;13.63;9.20;;;1.20;99.90;;;;;;5030935;28;20037;-73
2023/01/22 09:05:13;;;;;;;17.40;9.55;;;1.30;99.90;;;;;;5043220;23;20041;-69
2023/01/22 09:07:39;;;;;;;14.75;8.80;;;1.40;99.90;;;;;;5052566;28;20033;-69
2023/01/22 09:10:06;;;;;;;18.13;9.82;;;1.40;99.90;;;;;;5051142;28;20127;-69
2023/01/22 09:12:33;;;;;;;18.10;9.48;;;1.20;99.90;;;;;;5051544;28;20090;-69
2023/01/22 09:14:59;;;;;;;14.63;8.55;;;1.20;99.90;;;;;;5044132;28;20080;-72
2023/01/22 09:17:24;;;;;;;18.92;9.45;;;1.40;99.90;;;;;;5032568;28;20061;-71
2023/01/22 09:19:53;;;;;;;14.88;8.35;;;1.30;99.90;;;;;;5032565;28;20046;-70
2023/01/22 09:22:21;;;;;;;20.77;8.25;;;1.20;99.90;;;;;;5030726;28;20048;-71
2023/01/22 09:24:47;;;;;;;17.02;8.45;;;1.10;99.90;;;;;;5031235;28;20041;-71
2023/01/22 09:27:15;;;;;;;17.67;8.85;;;1.10;99.90;;;;;;5031191;28;20617;-70
2023/01/22 09:29:41;;;;;;;14.23;8.82;;;1.10;99.90;;;;;;5031545;28;20037;-70
2023/01/22 09:32:07;;;;;;;15.90;8.02;;;1.30;99.90;;;;;;5031245;28;20488;-70
2023/01/22 09:34:33;;;;;;;17.88;8.30;;;1.30;99.90;;;;;;5030942;28;20171;-70
2023/01/22 09:37:01;;;;;;;16.98;9.48;;;1.30;99.90;;;;;;5033561;28;20048;-71
2023/01/22 09:39:27;;;;;;;17.58;9.02;;;1.40;99.90;;;;;;5015906;28;20038;-71
2023/01/22 09:41:56;;;;;;;16.02;8.32;;;1.40;99.90;;;;;;5033419;28;20045;-71
2023/01/22 09:44:36;;;;;;;13.05;7.93;;;1.40;99.90;;;;;;5016845;28;20050;-70
2023/01/22 09:47:14;;;;;;;17.45;9.00;;;1.50;99.90;;;;;;5034038;28;20283;-71
2023/01/22 09:50:03;;;;;;;18.48;9.43;;;1.30;99.90;;;;;;5035363;28;20049;-71
2023/01/22 09:52:31;;;;;;;10.63;7.13;;;1.40;99.90;;;;;;5034448;28;20077;-70
2023/01/22 09:54:56;;;;;;;11.32;7.78;;;1.40;99.90;;;;;;5033202;28;20122;-71
2023/01/22 09:57:24;;;;;;;10.50;7.75;;;1.60;99.90;;;;;;5034570;28;20081;-71
2023/01/22 09:59:55;;;;;;;14.75;7.88;;;1.60;99.90;;;;;;5033992;28;20107;-70
2023/01/22 10:02:41;;;;;;;17.20;10.00;;;1.60;99.90;;;;;;5033107;28;20068;-69
2023/01/22 10:05:29;;;;;;;14.98;8.15;;;1.70;99.90;;;;;;5032705;28;20063;-70
2023/01/22 10:08:11;;;;;;;11.68;7.72;;;1.60;99.90;;;;;;5031618;28;20484;-69
2023/01/22 10:10:37;;;;;;;13.00;7.65;;;1.60;99.90;;;;;;5032949;28;20083;-70
2023/01/22 10:13:22;;;;;;;11.95;8.10;;;1.70;99.90;;;;;;5031249;28;20124;-70
2023/01/22 10:15:50;;;;;;;12.07;7.55;;;1.60;99.90;;;;;;5032720;28;20120;-70
2023/01/22 10:18:41;;;;;;;12.65;8.02;;;1.80;99.90;;;;;;5014297;28;20413;-70
2023/01/22 10:21:31;;;;;;;13.15;8.32;;;1.80;99.90;;;;;;5031808;28;20068;-70
2023/01/22 10:23:57;;;;;;;18.63;8.38;;;1.80;99.90;;;;;;5021004;28;20061;-70
2023/01/22 10:26:37;;;;;;;16.65;8.80;;;1.90;99.90;;;;;;5030036;28;20041;-71
2023/01/22 10:29:28;;;;;;;14.50;8.40;;;1.80;99.90;;;;;;5031725;28;20042;-69
2023/01/22 10:32:14;;;;;;;14.25;8.00;;;1.90;99.90;;;;;;5030244;28;20064;-70
2023/01/22 10:34:39;;;;;;;14.63;8.48;;;2.00;99.90;;;;;;5031131;28;20038;-70
2023/01/22 10:37:14;;;;;;;15.77;8.60;;;1.90;99.90;;;;;;5031495;28;20037;-70
2023/01/22 10:39:42;;;;;;;13.32;9.10;;;2.00;99.90;;;;;;5031382;28;20037;-70
2023/01/22 10:42:19;;;;;;;15.35;8.82;;;2.00;99.90;;;;;;5013520;28;20041;-70
2023/01/22 10:44:45;;;;;;;12.52;8.07;;;2.00;99.90;;;;;;5030022;28;20045;-70
2023/01/22 10:47:19;;;;;;;11.73;8.23;;;2.00;99.90;;;;;;5030110;28;20037;-70
2023/01/22 10:49:46;;;;;;;14.20;8.68;;;2.10;99.90;;;;;;5030425;28;20598;-70
2023/01/22 10:52:30;;;;;;;14.07;8.07;;;2.00;99.90;;;;;;5029932;28;20503;-70
2023/01/22 10:54:58;;;;;;;14.07;8.48;;;2.20;99.90;;;;;;5029983;28;20554;-70
2023/01/22 10:57:32;;;;;;;13.73;8.52;;;2.00;99.90;;;;;;5030381;28;20081;-70
2023/01/22 11:00:17;;;;;;;13.32;8.60;;;2.10;99.90;;;;;;5031332;28;20518;-69
2023/01/22 11:02:45;;;;;;;16.08;9.27;;;2.10;99.90;;;;;;5029678;28;20041;-69
2023/01/22 11:05:19;;;;;;;12.10;8.10;;;2.10;99.90;;;;;;5030915;28;20041;-70
2023/01/22 11:07:48;;;;;;;11.52;7.95;;;2.20;99.90;;;;;;5030043;28;20041;-70
2023/01/22 11:10:34;;;;;;;13.02;8.55;;;2.30;99.90;;;;;;5030031;28;20175;-70
2023/01/22 11:13:24;;;;;;;11.23;7.53;;;2.30;99.90;;;;;;5029198;28;20548;-70
2023/01/22 11:16:09;;;;;;;10.68;8.18;;;2.30;99.90;;;;;;5032010;28;20133;-71
2023/01/22 11:18:37;;;;;;;11.23;7.57;;;2.30;99.90;;;;;;5034956;28;20037;-70
2023/01/22 11:21:19;;;;;;;9.55;8.13;;;2.20;99.90;;;;;;5033620;28;20038;-70
2023/01/22 11:24:31;;;;;;;13.75;7.35;;;2.40;99.90;;;;;;5033993;28;20455;-70
2023/01/22 11:27:33;;;;;;;14.80;9.45;;;2.40;99.90;;;;;;5020210;28;20053;-70
2023/01/22 11:30:02;;;;;;;10.15;7.30;;;2.40;99.90;;;;;;5033441;28;20053;-70
2023/01/22 11:32:37;;;;;;;9.57;7.43;;;2.50;99.90;;;;;;5032262;28;20500;-71
2023/01/22 11:35:35;;;;;;;12.05;7.45;;;2.60;99.90;;;;;;5016401;28;20060;-70
2023/01/22 11:38:09;;;;;;;11.68;7.38;;;2.40;99.90;;;;;;5020403;28;20576;-71
2023/01/22 11:41:15;;;;;;;14.07;8.13;;;2.60;99.90;;;;;;5034171;28;20168;-70
2023/01/22 11:43:59;;;;;;;13.70;8.10;;;2.70;99.90;;;;;;5015785;28;20514;-70
2023/01/22 11:47:03;;;;;;;12.98;8.30;;;2.60;99.90;;;;;;5033935;28;20049;-70
2023/01/22 11:49:54;;;;;;;11.57;7.30;;;2.60;99.90;;;;;;5016404;28;20060;-71
2023/01/22 11:52:40;;;;;;;10.98;7.25;;;2.60;99.90;;;;;;5032152;28;20041;-70
2023/01/22 11:55:15;;;;;;;13.75;7.70;;;2.50;99.90;;;;;;5032440;28;20049;-71
2023/01/22 11:58:01;;;;;;;11.55;7.32;;;2.50;99.90;;;;;;5032941;28;20128;-69
2023/01/22 12:00:37;;;;;;;11.90;7.53;;;2.60;99.90;;;;;;5032558;28;20050;-70
2023/01/22 12:03:43;;;;;;;12.73;7.28;;;2.60;99.90;;;;;;5031799;28;20059;-70
2023/01/22 12:06:31;;;;;;;13.07;7.78;;;2.50;99.90;;;;;;5033586;28;20495;-70
2023/01/22 12:09:22;;;;;;;11.93;7.30;;;2.50;99.90;;;;;;5032478;28;20041;-70
2023/01/22 12:12:13;;;;;;;12.77;7.72;;;2.50;99.90;;;;;;5033647;28;20033;-70
2023/01/22 12:15:10;;;;;;;12.15;7.65;;;2.70;99.90;;;;;;5015179;28;20088;-70
2023/01/22 12:17:58;;;;;;;12.48;7.30;;;2.70;99.90;;;;;;5032202;28;20044;-70
2023/01/22 12:20:47;;;;;;;8.85;6.82;;;2.80;99.90;;;;;;5033370;28;20034;-72
2023/01/22 12:23:23;;;;;;;12.40;7.63;;;2.60;99.90;;;;;;5031310;28;20095;-67
2023/01/22 12:26:08;;;;;;;13.82;7.57;;;2.70;99.90;;;;;;5031651;28;20033;-69
2023/01/22 12:28:48;;;;;;;11.52;6.85;;;2.90;99.90;;;;;;5021375;28;20052;-67
2023/01/22 12:31:32;;;;;;;17.38;9.15;;;2.90;99.90;;;;;;5028480;28;20073;-66
2023/01/22 12:34:00;;;;;;;11.32;7.28;;;2.90;99.90;;;;;;5032112;28;20446;-67
2023/01/22 12:36:27;;;;;;;10.57;6.50;;;2.90;99.90;;;;;;5033029;28;20117;-67
2023/01/22 12:39:02;;;;;;;13.65;7.93;;;3.00;99.90;;;;;;5032637;28;20045;-67
2023/01/22 12:41:55;;;;;;;17.30;10.00;;;2.90;99.90;;;;;;5031370;28;20038;-67
2023/01/22 12:44:36;;;;;;;15.60;7.82;;;2.90;99.90;;;;;;5031933;28;20052;-67
2023/01/22 12:47:11;;;;;;;17.35;8.13;;;3.00;99.90;;;;;;5032635;28;20047;-67
2023/01/22 12:49:45;;;;;;;17.08;9.10;;;3.00;99.90;;;;;;5027585;28;20049;-68
2023/01/22 12:52:30;;;;;;;;;;;2.90;99.90;;;;;;5033007;28;20064;-67
2023/01/22 12:54:57;;;;;;;17.85;9.00;;;2.90;99.90;;;;;;5040239;28;20387;-67
2023/01/22 12:57:26;;;;;;;19.35;9.13;;;3.00;99.90;;;;;;5033519;28;20128;-67
2023/01/22 12:59:56;;;;;;;15.48;8.00;;;3.10;99.90;;;;;;5032259;28;20124;-66
2023/01/22 13:02:37;;;;;;;20.15;9.32;;;3.00;99.90;;;;;;5030518;28;20041;-66
2023/01/22 13:05:24;;;;;;;20.50;9.52;;;2.90;99.90;;;;;;5032054;28;20064;-66
2023/01/22 13:08:02;;;;;;;21.65;8.75;;;3.00;99.90;;;;;;5032099;28;20411;-67
2023/01/22 13:10:30;;;;;;;16.38;9.48;;;2.90;99.90;;;;;;5031163;28;20053;-67